createdAt,value
2016-07-20T00:00:41.198Z,20.83
2016-07-20T00:01:34.613Z,20.75
2016-07-20T00:02:48.705Z,20.76
2016-07-20T00:03:49.487Z,20.75
2016-07-20T00:04:33.452Z,20.76
2016-07-20T00:05:33.229Z,20.75
2016-07-20T00:06:33.739Z,20.74
2016-07-20T00:07:33.526Z,20.75
2016-07-20T00:08:32.847Z,20.73
2016-07-20T00:09:31.691Z,20.72
2016-07-20T00:10:31.902Z,20.69
2016-07-20T00:11:28.593Z,20.72
2016-07-20T00:12:12.747Z,20.71
2016-07-20T00:13:33.773Z,20.71
2016-07-20T00:14:38.719Z,20.73
2016-07-20T00:15:39.872Z,20.71
2016-07-20T00:16:34.455Z,20.72
2016-07-20T00:17:33.345Z,20.71
2016-07-20T00:18:43.937Z,20.72
2016-07-20T00:19:27.773Z,20.71
2016-07-20T00:20:42.136Z,20.71
2016-07-20T00:21:31.276Z,20.69
2016-07-20T00:22:39.163Z,20.67
2016-07-20T00:23:32.662Z,20.66
2016-07-20T00:24:33.233Z,20.70
2016-07-20T00:25:33.375Z,20.68
2016-07-20T00:26:33.479Z,20.66
2016-07-20T00:27:43.898Z,20.64
2016-07-20T00:28:28.366Z,20.63
2016-07-20T00:29:33.509Z,20.71
2016-07-20T00:30:32.219Z,20.61
2016-07-20T00:31:26.708Z,20.59
2016-07-20T00:32:22.176Z,20.57
2016-07-20T00:33:16.678Z,20.56
2016-07-20T00:34:27.835Z,20.61
2016-07-20T00:35:15.541Z,20.59
2016-07-20T00:36:16.871Z,20.57
2016-07-20T00:37:21.471Z,20.55
2016-07-20T00:38:22.768Z,20.53
2016-07-20T00:39:33.978Z,20.51
2016-07-20T00:40:32.703Z,20.52
2016-07-20T00:41:33.357Z,20.47
2016-07-20T00:42:32.784Z,20.47
2016-07-20T00:43:37.340Z,20.48
2016-07-20T00:44:27.968Z,20.44
2016-07-20T00:45:13.557Z,20.46
2016-07-20T00:46:34.359Z,20.43
2016-07-20T00:47:34.074Z,20.43
2016-07-20T00:48:39.470Z,20.40
2016-07-20T00:49:32.710Z,20.39
2016-07-20T00:50:26.603Z,20.36
2016-07-20T00:51:33.389Z,20.39
2016-07-20T00:52:33.893Z,20.36
2016-07-20T00:53:33.205Z,20.38
2016-07-20T00:54:34.127Z,20.40
2016-07-20T00:55:41.343Z,20.35
2016-07-20T00:56:28.478Z,20.37
2016-07-20T00:57:35.306Z,20.36
2016-07-20T00:58:34.828Z,20.35
2016-07-20T00:59:33.850Z,20.35
2016-07-20T01:00:33.962Z,20.32
2016-07-20T01:01:33.853Z,20.32
2016-07-20T01:02:31.642Z,20.34
2016-07-20T01:03:32.668Z,20.36
2016-07-20T01:04:34.287Z,20.31
2016-07-20T01:05:13.247Z,20.31
2016-07-20T01:06:32.878Z,20.28
2016-07-20T01:07:13.167Z,20.34
2016-07-20T01:08:34.173Z,20.31
2016-07-20T01:09:33.522Z,20.32
2016-07-20T01:10:32.692Z,20.29
2016-07-20T01:11:33.467Z,20.30
2016-07-20T01:12:43.686Z,20.30
2016-07-20T01:13:33.296Z,20.28
2016-07-20T01:14:37.523Z,20.26
2016-07-20T01:15:33.388Z,20.26
2016-07-20T01:16:39.099Z,20.26
2016-07-20T01:17:34.445Z,20.28
2016-07-20T01:18:27.888Z,20.29
2016-07-20T01:19:43.152Z,20.29
2016-07-20T01:20:33.953Z,20.28
2016-07-20T01:21:43.143Z,20.31
2016-07-20T01:22:39.464Z,20.26
2016-07-20T01:23:31.440Z,20.29
2016-07-20T01:24:44.122Z,20.27
2016-07-20T01:25:33.274Z,20.25
2016-07-20T01:26:34.114Z,20.22
2016-07-20T01:27:43.181Z,20.21
2016-07-20T01:28:30.242Z,20.19
2016-07-20T01:29:40.853Z,20.22
2016-07-20T01:30:38.924Z,20.22
2016-07-20T01:31:44.368Z,20.20
2016-07-20T01:32:44.057Z,20.22
2016-07-20T01:33:39.071Z,20.22
2016-07-20T01:34:35.038Z,20.25
2016-07-20T01:35:32.864Z,20.23
2016-07-20T01:36:43.303Z,20.23
2016-07-20T01:37:38.056Z,20.20
2016-07-20T01:38:29.447Z,20.19
2016-07-20T01:39:26.020Z,20.20
2016-07-20T01:40:21.258Z,20.18
2016-07-20T01:41:26.996Z,20.16
2016-07-20T01:42:15.890Z,20.15
2016-07-20T01:43:15.130Z,20.14
2016-07-20T01:44:24.975Z,20.20
2016-07-20T01:45:14.111Z,20.12
2016-07-20T01:46:31.031Z,20.12
2016-07-20T01:47:27.493Z,20.12
2016-07-20T01:48:40.305Z,20.13
2016-07-20T01:49:33.815Z,20.12
2016-07-20T01:50:39.596Z,20.09
2016-07-20T01:51:32.866Z,20.14
2016-07-20T01:52:12.497Z,20.14
2016-07-20T01:53:34.695Z,20.10
2016-07-20T01:54:30.163Z,20.09
2016-07-20T01:55:41.343Z,20.11
2016-07-20T01:56:36.160Z,20.08
2016-07-20T01:57:33.545Z,20.08
2016-07-20T01:58:49.184Z,20.15
2016-07-20T01:59:41.562Z,20.09
2016-07-20T02:00:49.096Z,20.08
2016-07-20T02:01:42.304Z,20.06
2016-07-20T02:02:35.444Z,20.07
2016-07-20T02:03:33.706Z,20.08
2016-07-20T02:04:34.698Z,20.06
2016-07-20T02:05:32.464Z,20.03
2016-07-20T02:06:34.723Z,20.05
2016-07-20T02:07:49.101Z,20.03
2016-07-20T02:08:33.712Z,20.02
2016-07-20T02:09:53.225Z,20.02
2016-07-20T02:10:31.982Z,20.04
2016-07-20T02:11:23.310Z,20.02
2016-07-20T02:12:41.177Z,20.03
2016-07-20T02:13:45.776Z,20.01
2016-07-20T02:14:34.170Z,20.03
2016-07-20T02:15:39.697Z,20.01
2016-07-20T02:16:34.547Z,20.00
2016-07-20T02:17:42.644Z,19.99
2016-07-20T02:18:33.777Z,20.00
2016-07-20T02:19:34.877Z,20.02
2016-07-20T02:20:32.641Z,20.01
2016-07-20T02:21:36.916Z,20.08
2016-07-20T02:22:35.075Z,19.98
2016-07-20T02:23:29.203Z,19.97
2016-07-20T02:24:29.347Z,19.97
2016-07-20T02:25:46.195Z,19.97
2016-07-20T02:26:33.401Z,19.96
2016-07-20T02:27:44.157Z,19.96
2016-07-20T02:28:34.795Z,19.94
2016-07-20T02:29:43.562Z,19.93
2016-07-20T02:30:33.401Z,19.95
2016-07-20T02:31:38.227Z,19.94
2016-07-20T02:32:34.071Z,19.93
2016-07-20T02:33:27.549Z,19.88
2016-07-20T02:34:40.163Z,19.87
2016-07-20T02:35:34.212Z,19.83
2016-07-20T02:36:28.942Z,19.85
2016-07-20T02:37:33.694Z,19.83
2016-07-20T02:38:32.302Z,19.80
2016-07-20T02:39:33.788Z,19.84
2016-07-20T02:40:34.192Z,19.82
2016-07-20T02:41:47.244Z,20.01
2016-07-20T02:42:39.358Z,19.88
2016-07-20T02:43:49.357Z,19.88
2016-07-20T02:44:45.420Z,19.87
2016-07-20T02:45:39.526Z,19.87
2016-07-20T02:46:26.947Z,19.86
2016-07-20T02:47:28.011Z,19.86
2016-07-20T02:48:20.458Z,19.85
2016-07-20T02:49:22.285Z,19.85
2016-07-20T02:50:17.040Z,19.88
2016-07-20T02:51:17.611Z,19.87
2016-07-20T02:52:38.407Z,19.84
2016-07-20T02:53:43.987Z,19.82
2016-07-20T02:54:40.128Z,19.82
2016-07-20T02:55:43.477Z,19.83
2016-07-20T02:56:34.210Z,19.80
2016-07-20T02:57:34.643Z,19.81
2016-07-20T02:58:34.180Z,19.81
2016-07-20T02:59:49.385Z,19.82
2016-07-20T03:00:21.873Z,19.84
2016-07-20T03:01:42.059Z,19.84
2016-07-20T03:02:41.718Z,19.85
2016-07-20T03:03:47.222Z,19.89
2016-07-20T03:04:33.557Z,19.87
2016-07-20T03:05:43.824Z,19.90
2016-07-20T03:06:32.927Z,19.93
2016-07-20T03:07:39.993Z,19.85
2016-07-20T03:08:39.415Z,19.88
2016-07-20T03:09:51.633Z,19.86
2016-07-20T03:10:35.009Z,19.86
2016-07-20T03:11:31.489Z,19.87
2016-07-20T03:12:31.521Z,19.88
2016-07-20T03:13:45.008Z,19.88
2016-07-20T03:14:40.494Z,19.89
2016-07-20T03:15:33.443Z,19.85
2016-07-20T03:16:40.075Z,19.84
2016-07-20T03:17:34.506Z,19.86
2016-07-20T03:18:38.809Z,19.79
2016-07-20T03:19:45.538Z,19.79
2016-07-20T03:20:40.802Z,19.76
2016-07-20T03:21:42.566Z,19.80
2016-07-20T03:22:17.693Z,19.76
2016-07-20T03:23:35.648Z,19.75
2016-07-20T03:24:32.739Z,19.72
2016-07-20T03:25:34.168Z,19.74
2016-07-20T03:26:34.355Z,19.73
2016-07-20T03:27:43.234Z,19.70
2016-07-20T03:28:44.566Z,19.69
2016-07-20T03:29:33.701Z,19.65
2016-07-20T03:30:38.594Z,19.65
2016-07-20T03:31:34.089Z,19.64
2016-07-20T03:32:14.569Z,19.65
2016-07-20T03:33:43.516Z,19.66
2016-07-20T03:34:32.036Z,19.62
2016-07-20T03:35:48.406Z,19.63
2016-07-20T03:36:41.923Z,19.58
2016-07-20T03:37:40.218Z,19.57
2016-07-20T03:38:44.087Z,19.55
2016-07-20T03:39:40.644Z,19.54
2016-07-20T03:40:44.014Z,19.51
2016-07-20T03:41:48.054Z,19.54
2016-07-20T03:42:28.832Z,19.54
2016-07-20T03:43:40.903Z,19.57
2016-07-20T03:44:48.416Z,19.58
2016-07-20T03:45:32.649Z,20.09
2016-07-20T03:46:41.496Z,20.16
2016-07-20T03:47:43.055Z,20.15
2016-07-20T03:48:35.689Z,20.16
2016-07-20T03:49:21.954Z,20.14
2016-07-20T03:50:41.776Z,20.18
2016-07-20T03:51:22.333Z,20.20
2016-07-20T03:52:30.818Z,20.13
2016-07-20T03:53:27.148Z,19.85
2016-07-20T03:54:20.181Z,19.61
2016-07-20T03:55:27.805Z,19.54
2016-07-20T03:56:22.813Z,19.55
2016-07-20T03:57:15.494Z,19.52
2016-07-20T03:58:25.526Z,19.51
2016-07-20T03:59:23.325Z,19.52
2016-07-20T04:00:34.267Z,19.52
2016-07-20T04:01:39.386Z,19.47
2016-07-20T04:02:33.718Z,19.50
2016-07-20T04:03:43.801Z,19.47
2016-07-20T04:04:33.895Z,19.47
2016-07-20T04:05:43.390Z,19.48
2016-07-20T04:06:31.311Z,19.49
2016-07-20T04:07:32.884Z,19.48
2016-07-20T04:08:37.813Z,19.48
2016-07-20T04:09:34.276Z,19.51
2016-07-20T04:10:34.007Z,19.47
2016-07-20T04:11:39.668Z,19.50
2016-07-20T04:12:33.920Z,19.50
2016-07-20T04:13:12.403Z,19.48
2016-07-20T04:14:32.610Z,19.49
2016-07-20T04:15:34.845Z,19.48
2016-07-20T04:16:44.015Z,19.46
2016-07-20T04:17:40.532Z,19.45
2016-07-20T04:18:27.919Z,19.45
2016-07-20T04:19:43.906Z,19.42
2016-07-20T04:20:33.915Z,19.47
2016-07-20T04:21:44.669Z,19.43
2016-07-20T04:22:46.758Z,19.42
2016-07-20T04:23:44.206Z,19.40
2016-07-20T04:24:34.171Z,19.43
2016-07-20T04:25:43.766Z,19.42
2016-07-20T04:26:43.764Z,19.40
2016-07-20T04:27:43.272Z,19.41
2016-07-20T04:28:34.043Z,19.44
2016-07-20T04:29:44.356Z,19.44
2016-07-20T04:30:33.034Z,19.44
2016-07-20T04:31:33.661Z,19.45
2016-07-20T04:32:43.901Z,19.44
2016-07-20T04:33:34.911Z,19.44
2016-07-20T04:34:29.406Z,19.49
2016-07-20T04:35:27.370Z,19.45
2016-07-20T04:36:38.817Z,19.46
2016-07-20T04:37:28.713Z,19.46
2016-07-20T04:38:34.404Z,19.46
2016-07-20T04:39:26.799Z,19.45
2016-07-20T04:40:36.644Z,19.46
2016-07-20T04:41:40.576Z,19.51
2016-07-20T04:42:34.781Z,19.49
2016-07-20T04:43:34.617Z,19.47
2016-07-20T04:44:49.083Z,19.45
2016-07-20T04:45:37.117Z,19.50
2016-07-20T04:46:42.721Z,19.53
2016-07-20T04:47:33.348Z,19.58
2016-07-20T04:48:34.561Z,19.57
2016-07-20T04:49:32.670Z,19.60
2016-07-20T04:50:46.635Z,19.62
2016-07-20T04:51:33.937Z,19.63
2016-07-20T04:52:32.263Z,19.63
2016-07-20T04:53:28.540Z,19.62
2016-07-20T04:54:37.831Z,19.59
2016-07-20T04:55:42.879Z,19.60
2016-07-20T04:56:33.731Z,19.60
2016-07-20T04:57:48.200Z,19.60
2016-07-20T04:58:28.958Z,19.62
2016-07-20T04:59:14.925Z,19.56
2016-07-20T05:00:15.447Z,19.55
2016-07-20T05:01:30.967Z,19.58
2016-07-20T05:02:22.320Z,19.63
2016-07-20T05:03:27.185Z,19.64
2016-07-20T05:04:31.682Z,19.63
2016-07-20T05:05:12.846Z,19.67
2016-07-20T05:06:20.980Z,19.67
2016-07-20T05:07:12.394Z,19.69
2016-07-20T05:08:13.400Z,19.69
2016-07-20T05:09:27.346Z,19.66
2016-07-20T05:10:22.046Z,19.67
2016-07-20T05:11:25.596Z,19.67
2016-07-20T05:12:31.325Z,19.68
2016-07-20T05:13:20.756Z,19.71
2016-07-20T05:14:18.727Z,19.72
2016-07-20T05:15:48.888Z,19.75
2016-07-20T05:16:48.620Z,19.76
2016-07-20T05:17:44.563Z,19.76
2016-07-20T05:18:35.979Z,19.76
2016-07-20T05:19:45.456Z,19.78
2016-07-20T05:20:32.407Z,19.84
2016-07-20T05:21:35.262Z,19.83
2016-07-20T05:22:33.340Z,19.87
2016-07-20T05:23:33.585Z,19.86
2016-07-20T05:24:27.237Z,19.89
2016-07-20T05:25:45.386Z,19.94
2016-07-20T05:26:33.042Z,19.93
2016-07-20T05:27:33.964Z,19.96
2016-07-20T05:28:28.548Z,19.96
2016-07-20T05:29:32.482Z,19.96
2016-07-20T05:30:27.451Z,19.98
2016-07-20T05:31:43.709Z,19.97
2016-07-20T05:32:53.516Z,19.97
2016-07-20T05:33:27.337Z,19.99
2016-07-20T05:34:29.894Z,20.54
2016-07-20T05:35:34.450Z,20.62
2016-07-20T05:36:33.106Z,20.69
2016-07-20T05:37:33.946Z,20.33
2016-07-20T05:38:19.681Z,20.21
2016-07-20T05:39:23.700Z,20.18
2016-07-20T05:40:29.111Z,20.21
2016-07-20T05:41:27.929Z,20.21
2016-07-20T05:42:21.874Z,20.19
2016-07-20T05:43:33.650Z,20.19
2016-07-20T05:44:31.447Z,20.20
2016-07-20T05:45:31.282Z,20.20
2016-07-20T05:46:25.610Z,20.24
2016-07-20T05:47:17.581Z,20.28
2016-07-20T05:48:19.881Z,20.37
2016-07-20T05:49:27.117Z,20.47
2016-07-20T05:50:27.635Z,20.50
2016-07-20T05:51:23.148Z,20.54
2016-07-20T05:52:24.571Z,20.58
2016-07-20T05:53:22.769Z,20.63
2016-07-20T05:54:24.001Z,20.72
2016-07-20T05:55:25.018Z,20.69
2016-07-20T05:56:21.274Z,20.76
2016-07-20T05:57:32.075Z,20.76
2016-07-20T05:58:21.936Z,20.81
2016-07-20T05:59:27.789Z,20.80
2016-07-20T06:00:27.864Z,20.82
2016-07-20T06:01:30.533Z,20.83
2016-07-20T06:02:28.028Z,20.85
2016-07-20T06:03:28.303Z,20.87
2016-07-20T06:04:28.770Z,20.89
2016-07-20T06:05:24.003Z,20.90
2016-07-20T06:06:16.028Z,20.90
2016-07-20T06:07:20.974Z,20.94
2016-07-20T06:08:26.472Z,20.93
2016-07-20T06:09:21.959Z,20.94
2016-07-20T06:10:25.207Z,20.99
2016-07-20T06:11:27.233Z,20.96
2016-07-20T06:12:23.025Z,20.99
2016-07-20T06:13:28.227Z,20.99
2016-07-20T06:14:22.826Z,20.99
2016-07-20T06:15:25.431Z,21.00
2016-07-20T06:16:26.374Z,21.01
2016-07-20T06:17:28.674Z,21.03
2016-07-20T06:18:29.263Z,21.06
2016-07-20T06:19:35.120Z,21.05
2016-07-20T06:20:35.684Z,21.05
2016-07-20T06:21:44.083Z,21.05
2016-07-20T06:22:32.342Z,21.06
2016-07-20T06:23:42.381Z,21.07
2016-07-20T06:24:33.767Z,21.09
2016-07-20T06:25:35.717Z,21.09
2016-07-20T06:26:36.477Z,21.10
2016-07-20T06:27:32.679Z,21.14
2016-07-20T06:28:35.874Z,21.64
2016-07-20T06:29:31.072Z,21.71
2016-07-20T06:30:36.880Z,21.21
2016-07-20T06:31:33.266Z,21.72
2016-07-20T06:32:38.089Z,21.76
2016-07-20T06:33:41.053Z,21.77
2016-07-20T06:34:44.598Z,21.49
2016-07-20T06:35:34.234Z,21.27
2016-07-20T06:36:32.763Z,21.22
2016-07-20T06:37:52.585Z,21.21
2016-07-20T06:38:37.822Z,21.23
2016-07-20T06:39:25.021Z,21.73
2016-07-20T06:40:47.790Z,21.79
2016-07-20T06:41:27.400Z,21.80
2016-07-20T06:42:28.455Z,21.82
2016-07-20T06:43:28.788Z,21.84
2016-07-20T06:44:23.158Z,21.85
2016-07-20T06:45:32.927Z,21.32
2016-07-20T06:46:33.482Z,21.29
2016-07-20T06:47:33.667Z,21.27
2016-07-20T06:48:26.039Z,21.26
2016-07-20T06:49:24.404Z,21.29
2016-07-20T06:50:27.406Z,21.48
2016-07-20T06:51:32.534Z,21.48
2016-07-20T06:52:31.679Z,21.35
2016-07-20T06:53:39.254Z,21.30
2016-07-20T06:54:55.730Z,21.30
2016-07-20T06:55:33.335Z,21.28
2016-07-20T06:56:48.055Z,21.30
2016-07-20T06:57:41.751Z,21.28
2016-07-20T06:58:35.173Z,21.28
2016-07-20T06:59:34.553Z,21.29
2016-07-20T07:00:29.058Z,21.29
2016-07-20T07:01:26.905Z,21.29
2016-07-20T07:02:33.512Z,21.29
2016-07-20T07:03:30.681Z,21.30
2016-07-20T07:04:43.160Z,21.30
2016-07-20T07:05:32.375Z,21.31
2016-07-20T07:06:39.386Z,21.31
2016-07-20T07:07:33.754Z,21.31
2016-07-20T07:08:38.191Z,21.33
2016-07-20T07:09:33.187Z,21.35
2016-07-20T07:10:28.724Z,21.33
2016-07-20T07:11:33.118Z,21.32
2016-07-20T07:12:32.644Z,21.33
2016-07-20T07:13:30.761Z,21.34
2016-07-20T07:14:27.198Z,21.33
2016-07-20T07:15:43.101Z,21.34
2016-07-20T07:16:34.262Z,21.34
2016-07-20T07:17:32.248Z,21.36
2016-07-20T07:18:24.965Z,21.35
2016-07-20T07:19:38.239Z,21.36
2016-07-20T07:20:39.398Z,21.41
2016-07-20T07:21:33.685Z,21.36
2016-07-20T07:22:22.069Z,21.37
2016-07-20T07:23:31.871Z,21.90
2016-07-20T07:24:32.684Z,21.96
2016-07-20T07:25:33.483Z,21.46
2016-07-20T07:26:23.957Z,21.43
2016-07-20T07:27:16.201Z,21.41
2016-07-20T07:28:29.431Z,21.41
2016-07-20T07:29:33.748Z,21.40
2016-07-20T07:30:33.753Z,21.40
2016-07-20T07:31:27.681Z,21.40
2016-07-20T07:32:29.864Z,21.40
2016-07-20T07:33:33.073Z,21.41
2016-07-20T07:34:31.957Z,21.41
2016-07-20T07:35:22.028Z,21.41
2016-07-20T07:36:34.886Z,21.42
2016-07-20T07:37:33.161Z,21.41
2016-07-20T07:38:25.384Z,21.42
2016-07-20T07:39:43.721Z,21.43
2016-07-20T07:40:25.200Z,21.43
2016-07-20T07:41:35.399Z,21.96
2016-07-20T07:42:28.106Z,21.49
2016-07-20T07:43:42.443Z,21.47
2016-07-20T07:44:31.449Z,21.46
2016-07-20T07:45:31.995Z,21.46
2016-07-20T07:46:32.549Z,21.46
2016-07-20T07:47:35.266Z,21.46
2016-07-20T07:48:34.260Z,21.52
2016-07-20T07:49:48.634Z,21.45
2016-07-20T07:50:21.313Z,21.48
2016-07-20T07:51:29.629Z,21.46
2016-07-20T07:52:35.037Z,21.47
2016-07-20T07:53:36.032Z,21.48
2016-07-20T07:54:28.860Z,21.47
2016-07-20T07:55:16.325Z,21.50
2016-07-20T07:56:47.041Z,21.48
2016-07-20T07:57:48.435Z,21.55
2016-07-20T07:58:18.208Z,21.51
2016-07-20T07:59:42.113Z,21.49
2016-07-20T08:00:57.071Z,21.57
2016-07-20T08:01:15.947Z,21.49
2016-07-20T08:02:20.366Z,21.48
2016-07-20T08:03:28.731Z,21.50
2016-07-20T08:04:46.491Z,21.54
2016-07-20T08:05:15.305Z,21.52
2016-07-20T08:06:19.260Z,21.51
2016-07-20T08:07:53.374Z,21.53
2016-07-20T08:08:16.796Z,21.51
2016-07-20T08:09:17.559Z,21.52
2016-07-20T08:10:16.822Z,21.54
2016-07-20T08:11:30.103Z,21.52
2016-07-20T08:12:17.262Z,21.53
2016-07-20T08:13:16.741Z,21.58
2016-07-20T08:14:17.209Z,21.54
2016-07-20T08:15:26.234Z,21.54
2016-07-20T08:16:42.434Z,21.53
2016-07-20T08:17:18.301Z,21.56
2016-07-20T08:18:16.904Z,21.55
2016-07-20T08:19:26.541Z,21.52
2016-07-20T08:20:18.260Z,21.55
2016-07-20T08:21:17.033Z,21.58
2016-07-20T08:22:17.153Z,22.08
2016-07-20T08:23:28.199Z,22.15
2016-07-20T08:24:17.272Z,22.16
2016-07-20T08:25:32.284Z,22.19
2016-07-20T08:26:15.558Z,22.20
2016-07-20T08:27:34.945Z,21.93
2016-07-20T08:28:18.371Z,21.68
2016-07-20T08:29:15.153Z,21.63
2016-07-20T08:30:15.274Z,21.62
2016-07-20T08:31:16.915Z,21.61
2016-07-20T08:32:15.691Z,21.59
2016-07-20T08:33:29.590Z,21.59
2016-07-20T08:34:16.230Z,21.59
2016-07-20T08:35:16.923Z,21.62
2016-07-20T08:36:17.800Z,21.59
2016-07-20T08:37:16.680Z,21.60
2016-07-20T08:38:17.009Z,21.61
2016-07-20T08:39:23.966Z,21.60
2016-07-20T08:40:15.415Z,21.60
2016-07-20T08:41:17.231Z,21.51
2016-07-20T08:42:15.709Z,21.67
2016-07-20T08:43:13.533Z,21.61
2016-07-20T08:44:16.703Z,21.62
2016-07-20T08:45:15.709Z,21.63
2016-07-20T08:46:15.218Z,21.62
2016-07-20T08:47:15.273Z,21.65
2016-07-20T08:48:15.383Z,21.63
2016-07-20T08:49:17.071Z,21.63
2016-07-20T08:50:15.999Z,21.70
2016-07-20T08:51:15.750Z,21.67
2016-07-20T08:52:15.378Z,21.65
2016-07-20T08:53:16.164Z,21.64
2016-07-20T08:54:17.499Z,21.64
2016-07-20T08:55:16.023Z,21.71
2016-07-20T08:56:17.026Z,21.64
2016-07-20T08:57:13.531Z,21.66
2016-07-20T08:58:14.000Z,21.65
2016-07-20T08:59:14.235Z,21.68
2016-07-20T09:00:21.759Z,21.67
2016-07-20T09:01:13.166Z,21.66
2016-07-20T09:02:20.083Z,21.65
2016-07-20T09:03:23.105Z,21.65
2016-07-20T09:04:34.640Z,21.65
2016-07-20T09:05:25.817Z,21.66
2016-07-20T09:06:44.265Z,21.66
2016-07-20T09:07:26.261Z,21.67
2016-07-20T09:08:32.037Z,21.68
2016-07-20T09:09:28.480Z,21.66
2016-07-20T09:10:15.280Z,21.67
2016-07-20T09:11:28.496Z,21.67
2016-07-20T09:12:27.943Z,21.67
2016-07-20T09:13:32.417Z,21.69
2016-07-20T09:14:13.816Z,21.68
2016-07-20T09:15:21.871Z,21.68
2016-07-20T09:16:45.762Z,21.91
2016-07-20T09:17:55.101Z,21.73
2016-07-20T09:18:29.667Z,21.71
2016-07-20T09:19:28.184Z,21.71
2016-07-20T09:20:31.868Z,21.68
2016-07-20T09:21:27.863Z,21.71
2016-07-20T09:22:28.422Z,21.70
2016-07-20T09:23:35.237Z,21.75
2016-07-20T09:24:26.467Z,21.70
2016-07-20T09:25:17.143Z,21.72
2016-07-20T09:26:22.389Z,21.70
2016-07-20T09:27:27.032Z,21.70
2016-07-20T09:28:30.902Z,21.70
2016-07-20T09:29:32.002Z,21.71
2016-07-20T09:30:34.032Z,21.76
2016-07-20T09:31:28.715Z,21.73
2016-07-20T09:32:33.708Z,21.72
2016-07-20T09:33:23.655Z,21.72
2016-07-20T09:34:14.933Z,21.74
2016-07-20T09:35:15.926Z,21.51
2016-07-20T09:36:16.399Z,21.72
2016-07-20T09:37:15.995Z,21.73
2016-07-20T09:38:16.734Z,21.81
2016-07-20T09:39:15.440Z,21.90
2016-07-20T09:40:12.564Z,21.78
2016-07-20T09:41:14.984Z,22.29
2016-07-20T09:42:15.289Z,22.34
2016-07-20T09:43:15.071Z,22.37
2016-07-20T09:44:12.819Z,22.38
2016-07-20T09:45:15.369Z,22.40
2016-07-20T09:46:09.960Z,22.40
2016-07-20T09:47:11.481Z,22.42
2016-07-20T09:48:15.037Z,22.40
2016-07-20T09:49:12.341Z,21.88
2016-07-20T09:50:14.724Z,21.83
2016-07-20T09:51:13.128Z,21.80
2016-07-20T09:52:19.450Z,21.79
2016-07-20T09:53:12.224Z,21.78
2016-07-20T09:54:19.491Z,21.77
2016-07-20T09:55:20.729Z,21.79
2016-07-20T09:56:20.019Z,21.77
2016-07-20T09:57:22.776Z,21.78
2016-07-20T09:58:14.850Z,21.64
2016-07-20T09:59:20.134Z,21.79
2016-07-20T10:00:20.579Z,21.78
2016-07-20T10:01:15.078Z,21.80
2016-07-20T10:02:12.399Z,21.79
2016-07-20T10:03:19.943Z,21.79
2016-07-20T10:04:20.563Z,22.32
2016-07-20T10:05:25.059Z,22.37
2016-07-20T10:06:27.674Z,22.09
2016-07-20T10:07:27.796Z,21.88
2016-07-20T10:08:35.352Z,21.84
2016-07-20T10:09:37.932Z,21.82
2016-07-20T10:10:24.855Z,21.81
2016-07-20T10:11:44.445Z,21.80
2016-07-20T10:12:27.954Z,21.83
2016-07-20T10:13:40.536Z,22.01
2016-07-20T10:14:27.310Z,21.85
2016-07-20T10:15:19.746Z,21.82
2016-07-20T10:16:33.896Z,21.83
2016-07-20T10:17:27.383Z,21.81
2016-07-20T10:18:31.206Z,21.84
2016-07-20T10:19:22.121Z,21.82
2016-07-20T10:20:32.232Z,21.81
2016-07-20T10:21:33.695Z,21.81
2016-07-20T10:22:27.542Z,21.80
2016-07-20T10:23:29.255Z,21.81
2016-07-20T10:24:43.622Z,21.81
2016-07-20T10:25:26.535Z,21.81
2016-07-20T10:26:32.371Z,21.82
2016-07-20T10:27:21.894Z,21.82
2016-07-20T10:28:25.345Z,21.82
2016-07-20T10:29:28.936Z,21.85
2016-07-20T10:30:25.743Z,21.81
2016-07-20T10:31:44.142Z,21.82
2016-07-20T10:32:31.810Z,21.85
2016-07-20T10:33:17.127Z,21.83
2016-07-20T10:34:26.524Z,21.83
2016-07-20T10:35:33.219Z,22.37
2016-07-20T10:36:28.302Z,22.42
2016-07-20T10:37:34.737Z,22.46
2016-07-20T10:38:43.912Z,22.46
2016-07-20T10:39:15.824Z,22.48
2016-07-20T10:40:34.390Z,22.48
2016-07-20T10:41:28.636Z,22.50
2016-07-20T10:42:23.947Z,22.49
2016-07-20T10:43:33.641Z,22.50
2016-07-20T10:44:24.572Z,22.52
2016-07-20T10:45:29.789Z,22.51
2016-07-20T10:46:31.795Z,22.50
2016-07-20T10:47:33.055Z,22.50
2016-07-20T10:48:22.590Z,22.51
2016-07-20T10:49:16.075Z,22.51
2016-07-20T10:50:14.121Z,21.98
2016-07-20T10:51:27.057Z,21.92
2016-07-20T10:52:33.470Z,21.90
2016-07-20T10:53:35.090Z,21.94
2016-07-20T10:54:44.718Z,21.88
2016-07-20T10:55:35.084Z,21.88
2016-07-20T10:56:27.118Z,21.87
2016-07-20T10:57:26.066Z,21.87
2016-07-20T10:58:41.177Z,21.87
2016-07-20T10:59:21.927Z,21.88
2016-07-20T11:00:27.959Z,21.88
2016-07-20T11:01:41.520Z,21.87
2016-07-20T11:02:21.399Z,21.88
2016-07-20T11:03:33.915Z,21.88
2016-07-20T11:04:25.164Z,21.88
2016-07-20T11:05:44.741Z,21.92
2016-07-20T11:06:31.091Z,21.90
2016-07-20T11:07:32.326Z,21.89
2016-07-20T11:08:34.337Z,21.89
2016-07-20T11:09:34.038Z,21.89
2016-07-20T11:10:44.495Z,22.37
2016-07-20T11:11:28.478Z,22.49
2016-07-20T11:12:40.151Z,22.51
2016-07-20T11:13:22.494Z,22.53
2016-07-20T11:14:33.751Z,22.52
2016-07-20T11:15:34.194Z,22.02
2016-07-20T11:16:45.473Z,21.98
2016-07-20T11:17:34.477Z,21.93
2016-07-20T11:18:19.999Z,21.93
2016-07-20T11:19:32.760Z,21.92
2016-07-20T11:20:32.591Z,21.92
2016-07-20T11:21:43.474Z,21.91
2016-07-20T11:22:33.706Z,21.92
2016-07-20T11:23:34.456Z,21.91
2016-07-20T11:24:32.631Z,21.91
2016-07-20T11:25:26.042Z,21.92
2016-07-20T11:26:32.835Z,21.92
2016-07-20T11:27:31.537Z,21.91
2016-07-20T11:28:35.420Z,21.91
2016-07-20T11:29:30.663Z,21.92
2016-07-20T11:30:28.242Z,21.94
2016-07-20T11:31:27.233Z,21.95
2016-07-20T11:32:27.814Z,21.92
2016-07-20T11:33:29.491Z,21.92
2016-07-20T11:34:32.142Z,21.92
2016-07-20T11:35:31.839Z,21.93
2016-07-20T11:36:27.682Z,21.92
2016-07-20T11:37:12.530Z,21.93
2016-07-20T11:38:26.691Z,21.91
2016-07-20T11:39:32.799Z,21.96
2016-07-20T11:40:31.855Z,22.13
2016-07-20T11:41:33.179Z,22.02
2016-07-20T11:42:21.927Z,21.96
2016-07-20T11:43:26.838Z,22.49
2016-07-20T11:44:33.453Z,22.53
2016-07-20T11:45:35.046Z,22.03
2016-07-20T11:46:35.897Z,21.98
2016-07-20T11:47:41.760Z,21.96
2016-07-20T11:48:27.926Z,21.95
2016-07-20T11:49:23.147Z,21.96
2016-07-20T11:50:32.450Z,21.95
2016-07-20T11:51:31.556Z,21.95
2016-07-20T11:52:31.979Z,21.95
2016-07-20T11:53:33.121Z,21.95
2016-07-20T11:54:26.047Z,21.95
2016-07-20T11:55:27.663Z,21.95
2016-07-20T11:56:28.833Z,21.96
2016-07-20T11:57:28.755Z,21.98
2016-07-20T11:58:28.728Z,21.96
2016-07-20T11:59:33.540Z,21.96
2016-07-20T12:00:34.050Z,21.96
2016-07-20T12:01:24.400Z,21.97
2016-07-20T12:02:33.550Z,21.97
2016-07-20T12:03:24.801Z,21.97
2016-07-20T12:04:23.676Z,21.99
2016-07-20T12:05:31.285Z,21.97
2016-07-20T12:06:14.882Z,21.97
2016-07-20T12:07:33.502Z,21.97
2016-07-20T12:08:33.897Z,21.99
2016-07-20T12:09:33.927Z,21.97
2016-07-20T12:10:29.440Z,21.97
2016-07-20T12:11:40.263Z,21.98
2016-07-20T12:12:21.033Z,21.97
2016-07-20T12:13:23.498Z,21.97
2016-07-20T12:14:34.005Z,21.98
2016-07-20T12:15:33.052Z,21.98
2016-07-20T12:16:28.545Z,21.99
2016-07-20T12:17:29.706Z,21.99
2016-07-20T12:18:33.163Z,21.99
2016-07-20T12:19:27.733Z,21.98
2016-07-20T12:20:32.936Z,21.99
2016-07-20T12:21:28.778Z,21.99
2016-07-20T12:22:34.679Z,22.01
2016-07-20T12:23:29.993Z,21.99
2016-07-20T12:24:42.181Z,22.00
2016-07-20T12:25:40.122Z,22.00
2016-07-20T12:26:29.891Z,22.00
2016-07-20T12:27:27.653Z,21.99
2016-07-20T12:28:38.419Z,22.01
2016-07-20T12:29:13.807Z,22.04
2016-07-20T12:30:16.061Z,22.01
2016-07-20T12:31:17.505Z,22.02
2016-07-20T12:32:16.601Z,22.02
2016-07-20T12:33:19.070Z,22.08
2016-07-20T12:34:15.910Z,22.07
2016-07-20T12:35:16.297Z,22.05
2016-07-20T12:36:17.126Z,22.06
2016-07-20T12:37:15.106Z,22.04
2016-07-20T12:38:17.306Z,22.04
2016-07-20T12:39:16.239Z,22.04
2016-07-20T12:40:17.455Z,21.93
2016-07-20T12:41:15.971Z,21.90
2016-07-20T12:42:15.850Z,22.06
2016-07-20T12:43:17.902Z,22.06
2016-07-20T12:44:15.423Z,22.11
2016-07-20T12:45:15.097Z,22.11
2016-07-20T12:46:15.241Z,22.06
2016-07-20T12:47:15.467Z,22.11
2016-07-20T12:48:16.049Z,22.08
2016-07-20T12:49:12.420Z,22.07
2016-07-20T12:50:15.878Z,22.07
2016-07-20T12:51:12.427Z,22.08
2016-07-20T12:52:16.781Z,22.08